createdAt,value
2019-02-23T00:04:01.408Z,-4.50
2019-02-23T00:08:45.990Z,-4.50
2019-02-23T00:13:30.919Z,-4.70
2019-02-23T00:18:15.515Z,-4.80
2019-02-23T00:23:00.124Z,-4.90
2019-02-23T00:27:44.843Z,-4.90
2019-02-23T00:32:29.365Z,-4.70
2019-02-23T00:37:13.879Z,-4.80
2019-02-23T00:41:58.438Z,-5.00
2019-02-23T00:46:42.962Z,-5.20
2019-02-23T00:51:29.803Z,-5.10
2019-02-23T00:56:14.319Z,-5.00
2019-02-23T01:00:58.871Z,-4.90
2019-02-23T01:05:43.522Z,-4.80
2019-02-23T01:10:28.147Z,-4.90
2019-02-23T01:15:12.933Z,-5.10
2019-02-23T01:19:57.509Z,-5.10
2019-02-23T01:24:42.366Z,-5.10
2019-02-23T01:29:26.991Z,-5.20
2019-02-23T01:34:11.558Z,-5.10
2019-02-23T01:38:56.274Z,-5.00
2019-02-23T01:43:40.814Z,-5.10
2019-02-23T01:48:25.511Z,-5.10
2019-02-23T01:53:10.053Z,-5.20
2019-02-23T01:57:54.550Z,-5.30
2019-02-23T02:02:39.440Z,-5.30
2019-02-23T02:07:24.001Z,-5.30
2019-02-23T02:12:09.959Z,-5.30
2019-02-23T02:16:54.663Z,-5.20
2019-02-23T02:21:39.528Z,-5.00
2019-02-23T02:26:24.099Z,-4.90
2019-02-23T02:31:08.678Z,-4.70
2019-02-23T02:35:53.276Z,-4.50
2019-02-23T02:40:38.034Z,-4.40
2019-02-23T02:45:22.595Z,-4.40
2019-02-23T02:50:08.163Z,-4.30
2019-02-23T02:54:52.742Z,-4.40
2019-02-23T02:59:37.425Z,-4.40
2019-02-23T03:04:22.107Z,-4.30
2019-02-23T03:09:08.977Z,-4.30
2019-02-23T03:13:53.711Z,-4.20
2019-02-23T03:18:38.383Z,-4.20
2019-02-23T03:23:22.879Z,-4.20
2019-02-23T03:28:07.450Z,-4.20
2019-02-23T03:32:52.168Z,-4.20
2019-02-23T03:37:36.994Z,-4.30
2019-02-23T03:42:21.678Z,-4.50
2019-02-23T03:47:06.240Z,-4.40
2019-02-23T03:51:50.878Z,-4.40
2019-02-23T03:56:35.586Z,-4.40
2019-02-23T04:01:20.072Z,-4.40
2019-02-23T04:06:04.644Z,-4.50
2019-02-23T04:10:49.305Z,-4.70
2019-02-23T04:15:33.917Z,-4.80
2019-02-23T04:20:18.424Z,-5.00
2019-02-23T04:25:02.949Z,-5.20
2019-02-23T04:29:47.498Z,-5.50
2019-02-23T04:34:32.049Z,-5.60
2019-02-23T04:39:16.567Z,-5.70
2019-02-23T04:44:01.077Z,-5.80
2019-02-23T04:48:45.673Z,-5.80
2019-02-23T04:53:30.159Z,-5.90
2019-02-23T04:58:14.741Z,-5.60
2019-02-23T05:02:59.287Z,-5.50
2019-02-23T05:07:43.730Z,-5.50
2019-02-23T05:12:28.307Z,-5.40
2019-02-23T05:17:13.025Z,-5.40
2019-02-23T05:21:57.607Z,-5.70
2019-02-23T05:26:42.143Z,-5.90
2019-02-23T05:31:26.667Z,-6.20
2019-02-23T05:36:11.191Z,-6.30
2019-02-23T05:40:55.847Z,-6.30
2019-02-23T05:45:40.379Z,-6.40
2019-02-23T05:50:24.927Z,-6.30
2019-02-23T05:55:09.426Z,-6.40
2019-02-23T05:59:53.941Z,-6.40
2019-02-23T06:04:38.453Z,-6.40
2019-02-23T06:09:23.071Z,-6.50
2019-02-23T06:14:07.577Z,-6.60
2019-02-23T06:18:52.052Z,-6.50
2019-02-23T06:23:36.806Z,-6.50
2019-02-23T06:28:21.489Z,-6.30
2019-02-23T06:33:06.057Z,-6.20
2019-02-23T06:37:53.336Z,-6.00
2019-02-23T06:42:36.871Z,-5.60
2019-02-23T06:47:21.505Z,-5.30
2019-02-23T06:52:06.045Z,-5.10
2019-02-23T06:56:50.589Z,-4.80
2019-02-23T07:01:35.270Z,-4.60
2019-02-23T07:06:20.053Z,-4.40
2019-02-23T07:11:04.821Z,-4.10
2019-02-23T07:15:49.459Z,-3.90
2019-02-23T07:20:43.703Z,-3.70
2019-02-23T07:25:20.505Z,-3.60
2019-02-23T07:30:05.919Z,-3.40
2019-02-23T07:34:50.475Z,-3.40
2019-02-23T07:39:35.111Z,-3.20
2019-02-23T07:44:19.734Z,-3.10
2019-02-23T07:49:04.267Z,-3.00
2019-02-23T07:53:48.861Z,-3.10
2019-02-23T07:58:33.689Z,-3.00
2019-02-23T08:03:18.429Z,-2.90
2019-02-23T08:08:02.977Z,-2.70
2019-02-23T08:12:47.581Z,-2.50
2019-02-23T08:17:32.270Z,-2.20
2019-02-23T08:22:16.919Z,-2.00
2019-02-23T08:27:01.604Z,-1.80
2019-02-23T08:31:46.130Z,-1.50
2019-02-23T08:36:30.869Z,-1.10
2019-02-23T08:41:15.601Z,-0.90
2019-02-23T08:46:07.408Z,-0.50
2019-02-23T08:51:20.385Z,-0.20
2019-02-23T08:56:05.173Z,0.00
2019-02-23T09:00:49.889Z,0.20
2019-02-23T09:05:34.989Z,0.30
2019-02-23T09:10:19.941Z,0.60
2019-02-23T09:15:11.419Z,0.40
2019-02-23T09:19:52.077Z,0.60
2019-02-23T09:24:37.538Z,0.90
2019-02-23T09:29:22.371Z,1.30
2019-02-23T09:34:07.159Z,1.80
2019-02-23T09:38:51.743Z,1.40
2019-02-23T09:43:36.329Z,2.00
2019-02-23T09:48:20.967Z,2.20
2019-02-23T09:53:11.109Z,2.60
2019-02-23T09:57:51.903Z,2.50
2019-02-23T10:02:36.458Z,2.90
2019-02-23T10:07:21.101Z,3.30
2019-02-23T10:12:05.691Z,3.10
2019-02-23T10:16:50.230Z,2.90
2019-02-23T10:21:34.939Z,3.10
2019-02-23T10:26:19.519Z,3.00
2019-02-23T10:31:04.148Z,3.60
2019-02-23T10:35:48.864Z,3.80
2019-02-23T10:40:33.557Z,3.80
2019-02-23T10:45:18.366Z,3.30
2019-02-23T10:50:03.010Z,3.30
2019-02-23T10:54:47.721Z,3.10
2019-02-23T10:59:33.482Z,3.30
2019-02-23T11:04:18.251Z,3.10
2019-02-23T11:09:02.911Z,3.70
2019-02-23T11:13:47.638Z,4.30
2019-02-23T11:18:32.306Z,4.60
2019-02-23T11:23:16.797Z,4.90
2019-02-23T11:28:01.427Z,5.10
2019-02-23T11:32:46.037Z,5.40
2019-02-23T11:37:30.790Z,5.50
2019-02-23T11:42:15.399Z,5.60
2019-02-23T11:47:00.508Z,5.70
2019-02-23T11:51:45.696Z,5.60
2019-02-23T11:56:30.151Z,5.70
2019-02-23T12:01:14.646Z,5.90
2019-02-23T12:05:59.276Z,5.80
2019-02-23T12:10:44.079Z,5.80
2019-02-23T12:15:28.733Z,6.10
2019-02-23T12:20:13.280Z,6.50
2019-02-23T12:24:58.098Z,6.70
2019-02-23T12:29:42.714Z,6.90
2019-02-23T12:34:27.327Z,6.70
2019-02-23T12:39:11.922Z,6.60
2019-02-23T12:43:56.493Z,6.80
2019-02-23T12:48:41.315Z,7.10
2019-02-23T12:53:25.846Z,7.20
2019-02-23T12:58:10.461Z,7.00
2019-02-23T13:02:55.242Z,6.70
2019-02-23T13:07:39.809Z,6.50
2019-02-23T13:12:57.130Z,6.40
2019-02-23T13:18:10.940Z,6.30
2019-02-23T13:23:34.279Z,6.30
2019-02-23T13:28:30.383Z,6.20
2019-02-23T13:33:40.130Z,6.20
2019-02-23T13:38:56.874Z,6.40
2019-02-23T13:44:19.365Z,6.30
2019-02-23T13:49:24.534Z,6.20
2019-02-23T13:54:45.580Z,5.90
2019-02-23T14:00:18.954Z,5.80
2019-02-23T14:05:44.034Z,5.50
2019-02-23T14:10:49.216Z,5.60
2019-02-23T14:16:03.553Z,5.30
2019-02-23T14:21:30.808Z,5.10
2019-02-23T14:27:11.636Z,5.40
2019-02-23T14:32:41.433Z,5.80
2019-02-23T14:37:54.804Z,6.00
2019-02-23T14:43:30.878Z,5.50
2019-02-23T14:48:51.058Z,5.00
2019-02-23T14:54:06.670Z,4.90
2019-02-23T14:59:28.514Z,4.50
2019-02-23T15:04:39.105Z,4.40
2019-02-23T15:10:03.522Z,4.40
2019-02-23T15:15:00.627Z,4.30
2019-02-23T15:20:29.218Z,4.30
2019-02-23T15:25:44.201Z,4.10
2019-02-23T15:31:09.939Z,4.00
2019-02-23T15:36:12.507Z,3.80
2019-02-23T15:41:24.355Z,3.60
2019-02-23T15:46:38.770Z,3.30
2019-02-23T15:51:23.268Z,3.00
2019-02-23T15:56:07.849Z,2.70
2019-02-23T16:00:52.434Z,2.40
2019-02-23T16:05:37.152Z,2.20
2019-02-23T16:10:21.797Z,2.00
2019-02-23T16:20:49.847Z,1.40
2019-02-23T16:26:56.575Z,1.10
2019-02-23T16:31:41.041Z,0.90
2019-02-23T16:36:25.566Z,0.50
2019-02-23T16:41:10.585Z,0.50
2019-02-23T16:45:55.215Z,0.20
2019-02-23T16:50:39.731Z,-0.10
2019-02-23T16:55:24.245Z,-0.20
2019-02-23T17:00:09.252Z,-0.30
2019-02-23T17:04:54.212Z,-0.40
2019-02-23T17:09:39.054Z,-0.60
2019-02-23T17:14:23.614Z,-0.80
2019-02-23T17:19:08.144Z,-1.00
2019-02-23T17:23:52.696Z,-1.10
2019-02-23T17:28:37.190Z,-1.20
2019-02-23T17:33:21.928Z,-1.30
2019-02-23T17:38:15.694Z,-1.40
2019-02-23T17:42:52.868Z,-1.30
2019-02-23T17:47:37.419Z,-1.20
2019-02-23T17:52:22.004Z,-1.10
2019-02-23T17:57:06.664Z,-1.10
2019-02-23T18:01:51.176Z,-1.10
2019-02-23T18:06:35.944Z,-1.20
2019-02-23T18:11:20.479Z,-1.30
2019-02-23T18:16:05.147Z,-1.40
2019-02-23T18:20:49.714Z,-1.50
2019-02-23T18:25:34.262Z,-1.50
2019-02-23T18:30:18.802Z,-1.70
2019-02-23T18:35:04.422Z,-1.90
2019-02-23T18:39:49.071Z,-2.00
2019-02-23T18:44:33.559Z,-2.20
2019-02-23T18:49:18.180Z,-2.30
2019-02-23T18:54:02.693Z,-2.50
2019-02-23T18:58:47.267Z,-2.60
2019-02-23T19:03:32.014Z,-2.60
2019-02-23T19:08:16.641Z,-2.40
2019-02-23T19:13:01.393Z,-2.10
2019-02-23T19:17:45.937Z,-1.80
2019-02-23T19:22:30.469Z,-1.50
2019-02-23T19:27:15.011Z,-1.40
2019-02-23T19:32:24.597Z,-1.10
2019-02-23T19:37:09.191Z,-0.90
2019-02-23T19:42:12.454Z,-0.70
2019-02-23T19:47:04.823Z,-0.60
2019-02-23T19:51:49.432Z,-0.60
2019-02-23T19:56:33.929Z,-0.60
2019-02-23T20:01:18.374Z,-0.60
2019-02-23T20:06:03.854Z,-0.60
2019-02-23T20:10:48.489Z,-0.70
2019-02-23T20:15:33.219Z,-0.90
2019-02-23T20:20:17.820Z,-0.90
2019-02-23T20:25:02.346Z,-1.00
2019-02-23T20:29:47.008Z,-1.00
2019-02-23T20:34:31.572Z,-1.00
2019-02-23T20:39:16.191Z,-0.90
2019-02-23T20:44:00.817Z,-0.90
2019-02-23T20:48:45.265Z,-0.80
2019-02-23T20:53:30.070Z,-0.90
2019-02-23T20:58:14.590Z,-0.90
2019-02-23T21:02:59.159Z,-0.90
2019-02-23T21:07:43.830Z,-1.00
2019-02-23T21:12:28.402Z,-1.10
2019-02-23T21:17:12.936Z,-1.20
2019-02-23T21:21:57.576Z,-1.20
2019-02-23T21:26:42.127Z,-1.20
2019-02-23T21:31:26.721Z,-1.20
2019-02-23T21:36:11.288Z,-1.30
2019-02-23T21:40:56.003Z,-1.30
2019-02-23T21:45:40.674Z,-1.30
2019-02-23T21:50:25.297Z,-1.40
2019-02-23T21:55:09.917Z,-1.30
2019-02-23T21:59:54.396Z,-1.50
2019-02-23T22:04:39.079Z,-1.40
2019-02-23T22:09:23.707Z,-1.50
2019-02-23T22:14:08.108Z,-1.50
2019-02-23T22:18:52.840Z,-1.40
2019-02-23T22:23:37.489Z,-1.40
2019-02-23T22:28:22.255Z,-1.40
2019-02-23T22:33:06.970Z,-1.50
2019-02-23T22:37:51.659Z,-1.70
2019-02-23T22:42:36.273Z,-1.80
2019-02-23T22:47:20.988Z,-1.70
2019-02-23T22:52:05.720Z,-1.60
2019-02-23T22:56:50.437Z,-1.30
2019-02-23T23:01:35.073Z,-1.20
2019-02-23T23:06:19.768Z,-1.20
2019-02-23T23:11:04.295Z,-1.20
